Charleston, SC

12:57 AM EDT on May 25, 2015 (GMT -0400)
Seaside Plantation | | Change Station
CLOSE
Current Station
Personal Weather Station
Location: James Island, SC
Elevation: 35 ft
Nearby Weather Stations

Elev 35 ft 32.71 °N, 79.95 °W | Updated 9 seconds ago

Clear
Clear
72.2 °F
Feels Like 75 °F
N
6.9
Wind Variable Wind from NNW
Gusts 6.9 mph

Today
High -- | Low -- °F
--% Chance of Precip.
Yesterday
High -- | Low -- °F
Precip. -- in
6:15 AM 8:18 PM
Waxing Crescent, 45% visible
Pressure 30.31 in
Visibility 10.0 miles
Clouds Clear
Heat Index 75 °F
Dew Point 62 °F
Humidity 69%
Rainfall 0.00 in
Snow Depth Not available.
UV 0 out of 12
Pollen 6.90 out of 12
Air Quality Not available.
Flu Activity Local Activity
METAR KJZI 250455Z AUTO 11007KT 10SM CLR 23/17 A3031 RMK A02 P000

More Conditions Fewer Conditions

Pressure 30.31 in
Visibility 10.0 miles
Clouds Clear
Heat Index 75 °F
Dew Point 62 °F
Humidity 69%
Rainfall 0.00 in
Snow Depth Not available.
UV 0 out of 12
Pollen 6.90 out of 12
Air Quality Not available.
Flu Activity Local Activity
METAR KJZI 250455Z AUTO 11007KT 10SM CLR 23/17 A3031 RMK A02 P000

More Conditions Fewer Conditions

10-Day Weather Forecast

Almanac

Astronomy

May. 25, 2015 Rise Set
Actual Time
Civil Twilight
Nautical Twilight
Astronomical Twilight
Moon
Length of Visible Light
Length of Day
Tomorrow will be .
, % of the Moon is Illuminated

Today's Extremes

State Highs State Lows

Community

WunderPhotos

Upload Photos

1,823,955 photos uploaded!

WunderBlogs® & News

Nearby

Air Quality

  Air Quality AQ Index Pollutant
Not available.

Snow Depth

Station Depth Elevation

Earthquake Activity

City Distance Mag. Time & Date
Minimum magnitude displayed is 2.5.

Coastal Water Temperatures

Place Temperature

Stations

Nearby Weather Stations

Station Location Temp. Windchill Dew Point Humidity Wind Precip. Elev Updated Type